sensor_id;sensor_type;location;lat;lon;timestamp;temperature;humidity
1137;DHT22;557;48.466;7.950;2023-05-10T00:00:58;13.90;99.90
1137;DHT22;557;48.466;7.950;2023-05-10T00:03:45;14.00;99.90
1137;DHT22;557;48.466;7.950;2023-05-10T00:06:32;14.00;99.90
1137;DHT22;557;48.466;7.950;2023-05-10T00:09:20;13.90;99.90
1137;DHT22;557;48.466;7.950;2023-05-10T00:12:07;13.80;99.90
1137;DHT22;557;48.466;7.950;2023-05-10T00:14:55;13.90;99.90
1137;DHT22;557;48.466;7.950;2023-05-10T00:17:43;13.80;99.90
1137;DHT22;557;48.466;7.950;2023-05-10T00:20:30;13.80;99.90
1137;DHT22;557;48.466;7.950;2023-05-10T00:23:17;13.80;99.90
1137;DHT22;557;48.466;7.950;2023-05-10T00:26:05;13.80;99.90
1137;DHT22;557;48.466;7.950;2023-05-10T00:28:52;13.80;99.90
1137;DHT22;557;48.466;7.950;2023-05-10T00:31:40;13.80;99.90
1137;DHT22;557;48.466;7.950;2023-05-10T00:34:28;13.70;99.90
1137;DHT22;557;48.466;7.950;2023-05-10T00:37:15;13.80;99.90
1137;DHT22;557;48.466;7.950;2023-05-10T00:40:03;13.80;99.90
1137;DHT22;557;48.466;7.950;2023-05-10T00:42:50;13.70;99.90
1137;DHT22;557;48.466;7.950;2023-05-10T00:45:40;13.70;99.90
1137;DHT22;557;48.466;7.950;2023-05-10T00:48:30;13.80;99.90
1137;DHT22;557;48.466;7.950;2023-05-10T00:51:17;13.70;99.90
1137;DHT22;557;48.466;7.950;2023-05-10T00:54:05;13.70;99.90
1137;DHT22;557;48.466;7.950;2023-05-10T00:56:52;13.80;99.90
1137;DHT22;557;48.466;7.950;2023-05-10T00:59:39;13.80;99.90
1137;DHT22;557;48.466;7.950;2023-05-10T01:02:27;13.70;99.90
1137;DHT22;557;48.466;7.950;2023-05-10T01:05:16;13.70;99.90
1137;DHT22;557;48.466;7.950;2023-05-10T01:08:03;13.70;99.90
1137;DHT22;557;48.466;7.950;2023-05-10T01:10:51;13.70;99.90
1137;DHT22;557;48.466;7.950;2023-05-10T01:13:41;13.70;99.90
1137;DHT22;557;48.466;7.950;2023-05-10T01:16:31;13.70;99.90
1137;DHT22;557;48.466;7.950;2023-05-10T01:19:22;13.70;99.90
1137;DHT22;557;48.466;7.950;2023-05-10T01:22:28;13.60;99.90
1137;DHT22;557;48.466;7.950;2023-05-10T01:25:45;13.60;99.90
1137;DHT22;557;48.466;7.950;2023-05-10T01:28:58;13.60;99.90
1137;DHT22;557;48.466;7.950;2023-05-10T01:32:07;13.60;99.90
1137;DHT22;557;48.466;7.950;2023-05-10T01:35:02;13.70;99.90
1137;DHT22;557;48.466;7.950;2023-05-10T01:37:58;13.60;99.90
1137;DHT22;557;48.466;7.950;2023-05-10T01:41:06;13.60;99.90
1137;DHT22;557;48.466;7.950;2023-05-10T01:44:00;13.60;99.90
1137;DHT22;557;48.466;7.950;2023-05-10T01:46:52;13.60;99.90
1137;DHT22;557;48.466;7.950;2023-05-10T01:49:45;13.60;99.90
1137;DHT22;557;48.466;7.950;2023-05-10T01:52:37;13.60;99.90
1137;DHT22;557;48.466;7.950;2023-05-10T01:55:28;13.60;99.90
1137;DHT22;557;48.466;7.950;2023-05-10T01:58:20;13.60;99.90
1137;DHT22;557;48.466;7.950;2023-05-10T02:01:08;13.60;99.90
1137;DHT22;557;48.466;7.950;2023-05-10T02:03:58;13.60;99.90
1137;DHT22;557;48.466;7.950;2023-05-10T02:06:47;13.60;99.90
1137;DHT22;557;48.466;7.950;2023-05-10T02:09:37;13.60;99.90
1137;DHT22;557;48.466;7.950;2023-05-10T02:12:25;13.50;99.90
1137;DHT22;557;48.466;7.950;2023-05-10T02:15:17;13.60;99.90
1137;DHT22;557;48.466;7.950;2023-05-10T02:18:06;13.60;99.90
1137;DHT22;557;48.466;7.950;2023-05-10T02:20:55;13.60;99.90
1137;DHT22;557;48.466;7.950;2023-05-10T02:23:45;13.60;99.90
1137;DHT22;557;48.466;7.950;2023-05-10T02:26:34;13.50;99.90
1137;DHT22;557;48.466;7.950;2023-05-10T02:29:22;13.50;99.90
1137;DHT22;557;48.466;7.950;2023-05-10T02:32:10;13.60;99.90
1137;DHT22;557;48.466;7.950;2023-05-10T02:34:58;13.60;99.90
1137;DHT22;557;48.466;7.950;2023-05-10T02:37:48;13.70;99.90
1137;DHT22;557;48.466;7.950;2023-05-10T02:40:37;13.70;99.90
1137;DHT22;557;48.466;7.950;2023-05-10T02:43:25;13.70;99.90
1137;DHT22;557;48.466;7.950;2023-05-10T02:46:13;13.70;99.90
1137;DHT22;557;48.466;7.950;2023-05-10T02:49:00;13.70;99.90
1137;DHT22;557;48.466;7.950;2023-05-10T02:51:51;13.70;99.90
1137;DHT22;557;48.466;7.950;2023-05-10T02:54:44;13.60;99.90
1137;DHT22;557;48.466;7.950;2023-05-10T02:57:34;13.60;99.90
1137;DHT22;557;48.466;7.950;2023-05-10T03:00:22;13.60;99.90
1137;DHT22;557;48.466;7.950;2023-05-10T03:03:09;13.60;99.90
1137;DHT22;557;48.466;7.950;2023-05-10T03:05:56;13.60;99.90
1137;DHT22;557;48.466;7.950;2023-05-10T03:08:44;13.60;99.90
1137;DHT22;557;48.466;7.950;2023-05-10T03:11:47;13.60;99.90
1137;DHT22;557;48.466;7.950;2023-05-10T03:14:48;13.60;99.90
1137;DHT22;557;48.466;7.950;2023-05-10T03:17:41;13.60;99.90
1137;DHT22;557;48.466;7.950;2023-05-10T03:20:35;13.60;99.90
1137;DHT22;557;48.466;7.950;2023-05-10T03:23:35;13.70;99.90
1137;DHT22;557;48.466;7.950;2023-05-10T03:26:26;13.70;99.90
1137;DHT22;557;48.466;7.950;2023-05-10T03:29:14;13.60;99.90
1137;DHT22;557;48.466;7.950;2023-05-10T03:32:04;13.60;99.90
1137;DHT22;557;48.466;7.950;2023-05-10T03:34:51;13.50;99.90
1137;DHT22;557;48.466;7.950;2023-05-10T03:37:38;13.40;99.90
1137;DHT22;557;48.466;7.950;2023-05-10T03:40:26;13.40;99.90
1137;DHT22;557;48.466;7.950;2023-05-10T03:43:14;13.40;99.90
1137;DHT22;557;48.466;7.950;2023-05-10T03:46:02;13.30;99.90
1137;DHT22;557;48.466;7.950;2023-05-10T03:48:51;13.30;99.90
1137;DHT22;557;48.466;7.950;2023-05-10T03:51:38;13.30;99.90
1137;DHT22;557;48.466;7.950;2023-05-10T03:54:25;13.30;99.90
1137;DHT22;557;48.466;7.950;2023-05-10T03:57:12;13.30;99.90
1137;DHT22;557;48.466;7.950;2023-05-10T04:00:03;13.30;99.90
1137;DHT22;557;48.466;7.950;2023-05-10T04:02:50;13.30;99.90
1137;DHT22;557;48.466;7.950;2023-05-10T04:05:39;13.30;99.90
1137;DHT22;557;48.466;7.950;2023-05-10T04:08:27;13.30;99.90
1137;DHT22;557;48.466;7.950;2023-05-10T04:11:14;13.20;99.90
1137;DHT22;557;48.466;7.950;2023-05-10T04:14:02;13.20;99.90
1137;DHT22;557;48.466;7.950;2023-05-10T04:16:49;13.20;99.90
1137;DHT22;557;48.466;7.950;2023-05-10T04:19:36;13.10;99.90
1137;DHT22;557;48.466;7.950;2023-05-10T04:22:25;13.10;99.90
1137;DHT22;557;48.466;7.950;2023-05-10T04:25:13;13.10;99.90
1137;DHT22;557;48.466;7.950;2023-05-10T04:28:01;13.10;99.90
1137;DHT22;557;48.466;7.950;2023-05-10T04:30:48;13.10;99.90
1137;DHT22;557;48.466;7.950;2023-05-10T04:33:36;13.20;99.90
1137;DHT22;557;48.466;7.950;2023-05-10T04:36:24;13.20;99.90
1137;DHT22;557;48.466;7.950;2023-05-10T04:39:13;13.20;99.90
1137;DHT22;557;48.466;7.950;2023-05-10T04:42:00;13.20;99.90
1137;DHT22;557;48.466;7.950;2023-05-10T04:44:48;13.20;99.90
1137;DHT22;557;48.466;7.950;2023-05-10T04:47:36;13.20;99.90
1137;DHT22;557;48.466;7.950;2023-05-10T04:50:23;13.20;99.90
1137;DHT22;557;48.466;7.950;2023-05-10T04:53:11;13.20;99.90
1137;DHT22;557;48.466;7.950;2023-05-10T04:56:00;13.10;99.90
1137;DHT22;557;48.466;7.950;2023-05-10T04:58:47;13.20;99.90
1137;DHT22;557;48.466;7.950;2023-05-10T05:01:35;13.20;99.90
1137;DHT22;557;48.466;7.950;2023-05-10T05:04:22;13.20;99.90
1137;DHT22;557;48.466;7.950;2023-05-10T05:07:10;13.20;99.90
1137;DHT22;557;48.466;7.950;2023-05-10T05:09:57;13.10;99.90
1137;DHT22;557;48.466;7.950;2023-05-10T05:12:46;13.10;99.90
1137;DHT22;557;48.466;7.950;2023-05-10T05:15:33;13.00;99.90
1137;DHT22;557;48.466;7.950;2023-05-10T05:18:21;13.10;99.90
1137;DHT22;557;48.466;7.950;2023-05-10T05:21:14;13.20;99.90
1137;DHT22;557;48.466;7.950;2023-05-10T05:24:02;13.30;99.90
1137;DHT22;557;48.466;7.950;2023-05-10T05:26:49;13.30;99.90
1137;DHT22;557;48.466;7.950;2023-05-10T05:29:38;13.40;99.90
1137;DHT22;557;48.466;7.950;2023-05-10T05:32:25;13.40;99.90
1137;DHT22;557;48.466;7.950;2023-05-10T05:35:13;13.40;99.90
1137;DHT22;557;48.466;7.950;2023-05-10T05:38:01;13.40;99.90
1137;DHT22;557;48.466;7.950;2023-05-10T05:40:48;13.50;99.90
1137;DHT22;557;48.466;7.950;2023-05-10T05:43:35;13.50;99.90
1137;DHT22;557;48.466;7.950;2023-05-10T05:46:24;13.50;99.90
1137;DHT22;557;48.466;7.950;2023-05-10T05:49:11;13.50;99.90
1137;DHT22;557;48.466;7.950;2023-05-10T05:51:59;13.50;99.90
1137;DHT22;557;48.466;7.950;2023-05-10T05:54:47;13.60;99.90
1137;DHT22;557;48.466;7.950;2023-05-10T05:57:34;13.50;99.90
1137;DHT22;557;48.466;7.950;2023-05-10T06:00:22;13.50;99.90
1137;DHT22;557;48.466;7.950;2023-05-10T06:03:10;13.60;99.90
1137;DHT22;557;48.466;7.950;2023-05-10T06:05:58;13.60;99.90
1137;DHT22;557;48.466;7.950;2023-05-10T06:08:45;13.60;99.90
1137;DHT22;557;48.466;7.950;2023-05-10T06:11:32;13.60;99.90
1137;DHT22;557;48.466;7.950;2023-05-10T06:14:20;13.60;99.90
1137;DHT22;557;48.466;7.950;2023-05-10T06:17:08;13.70;99.90
1137;DHT22;557;48.466;7.950;2023-05-10T06:19:56;13.70;99.90
1137;DHT22;557;48.466;7.950;2023-05-10T06:22:44;13.80;99.90
1137;DHT22;557;48.466;7.950;2023-05-10T06:25:31;13.80;99.90
1137;DHT22;557;48.466;7.950;2023-05-10T06:28:18;13.80;99.90
1137;DHT22;557;48.466;7.950;2023-05-10T06:31:06;13.90;99.90
1137;DHT22;557;48.466;7.950;2023-05-10T06:33:53;13.90;99.90
1137;DHT22;557;48.466;7.950;2023-05-10T06:36:42;13.90;99.90
1137;DHT22;557;48.466;7.950;2023-05-10T06:39:29;13.90;99.90
1137;DHT22;557;48.466;7.950;2023-05-10T06:42:16;14.00;99.90
1137;DHT22;557;48.466;7.950;2023-05-10T06:45:04;14.00;99.90
1137;DHT22;557;48.466;7.950;2023-05-10T06:47:52;14.00;99.90
1137;DHT22;557;48.466;7.950;2023-05-10T06:50:39;14.00;99.90
1137;DHT22;557;48.466;7.950;2023-05-10T06:53:28;14.00;99.90
1137;DHT22;557;48.466;7.950;2023-05-10T06:56:15;14.00;99.90
1137;DHT22;557;48.466;7.950;2023-05-10T06:59:03;14.00;99.90
1137;DHT22;557;48.466;7.950;2023-05-10T07:01:50;14.00;99.90
1137;DHT22;557;48.466;7.950;2023-05-10T07:04:37;14.00;99.90
1137;DHT22;557;48.466;7.950;2023-05-10T07:07:24;14.10;99.90
1137;DHT22;557;48.466;7.950;2023-05-10T07:10:13;14.20;99.90
1137;DHT22;557;48.466;7.950;2023-05-10T07:13:01;14.20;99.90
1137;DHT22;557;48.466;7.950;2023-05-10T07:15:48;14.20;99.90
1137;DHT22;557;48.466;7.950;2023-05-10T07:18:35;14.40;99.90
1137;DHT22;557;48.466;7.950;2023-05-10T07:21:23;14.40;99.90
1137;DHT22;557;48.466;7.950;2023-05-10T07:24:11;14.50;99.90
1137;DHT22;557;48.466;7.950;2023-05-10T07:27:00;14.60;99.90
1137;DHT22;557;48.466;7.950;2023-05-10T07:29:47;14.60;99.90
1137;DHT22;557;48.466;7.950;2023-05-10T07:32:34;14.50;99.90
1137;DHT22;557;48.466;7.950;2023-05-10T07:35:22;14.50;99.90
1137;DHT22;557;48.466;7.950;2023-05-10T07:38:09;14.60;99.90
1137;DHT22;557;48.466;7.950;2023-05-10T07:40:57;14.60;99.90
1137;DHT22;557;48.466;7.950;2023-05-10T07:43:46;14.60;99.90
1137;DHT22;557;48.466;7.950;2023-05-10T07:46:33;14.70;99.90
1137;DHT22;557;48.466;7.950;2023-05-10T07:49:20;14.80;99.90
1137;DHT22;557;48.466;7.950;2023-05-10T07:52:10;15.00;99.90
1137;DHT22;557;48.466;7.950;2023-05-10T07:54:57;15.20;99.90
1137;DHT22;557;48.466;7.950;2023-05-10T07:57:44;15.30;99.90
1137;DHT22;557;48.466;7.950;2023-05-10T08:00:34;15.50;99.90
1137;DHT22;557;48.466;7.950;2023-05-10T08:03:21;15.40;99.90
1137;DHT22;557;48.466;7.950;2023-05-10T08:06:08;15.40;99.90
1137;DHT22;557;48.466;7.950;2023-05-10T08:08:56;15.30;99.90
1137;DHT22;557;48.466;7.950;2023-05-10T08:11:43;15.20;99.90
1137;DHT22;557;48.466;7.950;2023-05-10T08:14:30;15.10;99.90
1137;DHT22;557;48.466;7.950;2023-05-10T08:17:19;15.10;99.90
1137;DHT22;557;48.466;7.950;2023-05-10T08:20:07;15.30;99.90
1137;DHT22;557;48.466;7.950;2023-05-10T08:22:54;15.60;90.40
1137;DHT22;557;48.466;7.950;2023-05-10T08:25:42;16.10;26.40
1137;DHT22;557;48.466;7.950;2023-05-10T08:28:29;16.10;1.00
1137;DHT22;557;48.466;7.950;2023-05-10T08:31:16;16.20;1.00
1137;DHT22;557;48.466;7.950;2023-05-10T08:34:05;16.30;1.00
1137;DHT22;557;48.466;7.950;2023-05-10T08:36:52;16.70;1.00
1137;DHT22;557;48.466;7.950;2023-05-10T08:39:42;16.50;1.00
1137;DHT22;557;48.466;7.950;2023-05-10T08:42:30;16.10;11.20
1137;DHT22;557;48.466;7.950;2023-05-10T08:45:20;15.60;8.20
1137;DHT22;557;48.466;7.950;2023-05-10T08:48:10;14.70;99.90
1137;DHT22;557;48.466;7.950;2023-05-10T08:51:00;14.20;99.90
1137;DHT22;557;48.466;7.950;2023-05-10T08:53:48;13.90;99.90
1137;DHT22;557;48.466;7.950;2023-05-10T08:56:36;13.80;99.90
1137;DHT22;557;48.466;7.950;2023-05-10T08:59:24;13.80;99.90
1137;DHT22;557;48.466;7.950;2023-05-10T09:02:11;14.10;99.90
1137;DHT22;557;48.466;7.950;2023-05-10T09:05:00;14.40;99.90
1137;DHT22;557;48.466;7.950;2023-05-10T09:07:50;14.60;99.90
1137;DHT22;557;48.466;7.950;2023-05-10T09:10:38;14.80;99.90
1137;DHT22;557;48.466;7.950;2023-05-10T09:13:26;15.00;99.90
1137;DHT22;557;48.466;7.950;2023-05-10T09:16:14;15.10;99.90
1137;DHT22;557;48.466;7.950;2023-05-10T09:19:02;15.10;99.90
1137;DHT22;557;48.466;7.950;2023-05-10T09:21:49;15.10;99.90
1137;DHT22;557;48.466;7.950;2023-05-10T09:24:38;15.00;99.90
1137;DHT22;557;48.466;7.950;2023-05-10T09:27:39;15.00;99.90
1137;DHT22;557;48.466;7.950;2023-05-10T09:30:28;15.10;99.90
1137;DHT22;557;48.466;7.950;2023-05-10T09:33:18;15.00;99.90
1137;DHT22;557;48.466;7.950;2023-05-10T09:36:09;15.00;99.90
1137;DHT22;557;48.466;7.950;2023-05-10T09:38:57;15.00;99.90
1137;DHT22;557;48.466;7.950;2023-05-10T09:41:45;14.80;99.90
1137;DHT22;557;48.466;7.950;2023-05-10T09:44:34;14.60;99.90
1137;DHT22;557;48.466;7.950;2023-05-10T09:47:27;14.50;99.90
1137;DHT22;557;48.466;7.950;2023-05-10T09:50:14;14.60;99.90
1137;DHT22;557;48.466;7.950;2023-05-10T09:53:03;15.00;99.90
1137;DHT22;557;48.466;7.950;2023-05-10T09:55:50;15.60;99.90
1137;DHT22;557;48.466;7.950;2023-05-10T09:58:39;16.20;99.90
1137;DHT22;557;48.466;7.950;2023-05-10T10:01:26;16.70;1.00
1137;DHT22;557;48.466;7.950;2023-05-10T10:04:20;16.60;10.40
1137;DHT22;557;48.466;7.950;2023-05-10T10:07:07;16.70;52.50
1137;DHT22;557;48.466;7.950;2023-05-10T10:09:55;16.60;1.00
1137;DHT22;557;48.466;7.950;2023-05-10T10:12:42;16.40;1.00
1137;DHT22;557;48.466;7.950;2023-05-10T10:15:33;16.10;99.90
1137;DHT22;557;48.466;7.950;2023-05-10T10:18:20;15.50;1.00
1137;DHT22;557;48.466;7.950;2023-05-10T10:21:15;15.30;64.50
1137;DHT22;557;48.466;7.950;2023-05-10T10:24:03;15.40;1.00
1137;DHT22;557;48.466;7.950;2023-05-10T10:26:52;15.50;1.00
1137;DHT22;557;48.466;7.950;2023-05-10T10:29:49;15.70;1.00
1137;DHT22;557;48.466;7.950;2023-05-10T10:32:59;16.10;1.00
1137;DHT22;557;48.466;7.950;2023-05-10T10:35:48;16.40;1.00
1137;DHT22;557;48.466;7.950;2023-05-10T10:38:38;16.90;1.00
1137;DHT22;557;48.466;7.950;2023-05-10T10:41:50;17.30;99.90
1137;DHT22;557;48.466;7.950;2023-05-10T10:44:38;17.40;1.00
1137;DHT22;557;48.466;7.950;2023-05-10T10:47:28;16.80;22.20
1137;DHT22;557;48.466;7.950;2023-05-10T10:50:20;16.40;99.90
1137;DHT22;557;48.466;7.950;2023-05-10T10:53:11;16.40;99.90
1137;DHT22;557;48.466;7.950;2023-05-10T10:56:09;17.00;1.00
1137;DHT22;557;48.466;7.950;2023-05-10T10:58:59;17.50;1.00
1137;DHT22;557;48.466;7.950;2023-05-10T11:01:51;17.90;99.90
1137;DHT22;557;48.466;7.950;2023-05-10T11:04:42;18.30;1.00
1137;DHT22;557;48.466;7.950;2023-05-10T11:07:33;18.40;99.90
1137;DHT22;557;48.466;7.950;2023-05-10T11:10:21;18.30;1.00
1137;DHT22;557;48.466;7.950;2023-05-10T11:13:09;18.00;99.90
1137;DHT22;557;48.466;7.950;2023-05-10T11:15:58;18.10;1.00
1137;DHT22;557;48.466;7.950;2023-05-10T11:18:58;18.20;99.90
1137;DHT22;557;48.466;7.950;2023-05-10T11:21:49;18.40;99.90
1137;DHT22;557;48.466;7.950;2023-05-10T11:24:38;18.50;99.90
1137;DHT22;557;48.466;7.950;2023-05-10T11:27:25;19.20;99.90
1137;DHT22;557;48.466;7.950;2023-05-10T11:30:13;19.40;99.90
1137;DHT22;557;48.466;7.950;2023-05-10T11:33:03;19.20;99.90
1137;DHT22;557;48.466;7.950;2023-05-10T11:35:52;20.10;99.90
1137;DHT22;557;48.466;7.950;2023-05-10T11:38:39;20.70;99.90
1137;DHT22;557;48.466;7.950;2023-05-10T11:41:29;20.10;99.90
1137;DHT22;557;48.466;7.950;2023-05-10T11:44:17;19.10;99.90
1137;DHT22;557;48.466;7.950;2023-05-10T11:47:05;18.60;99.90
1137;DHT22;557;48.466;7.950;2023-05-10T11:49:53;18.20;99.90
1137;DHT22;557;48.466;7.950;2023-05-10T11:52:40;17.90;99.90
1137;DHT22;557;48.466;7.950;2023-05-10T11:55:27;17.80;99.90
1137;DHT22;557;48.466;7.950;2023-05-10T11:58:18;17.50;99.90
1137;DHT22;557;48.466;7.950;2023-05-10T12:01:08;17.50;99.90
1137;DHT22;557;48.466;7.950;2023-05-10T12:03:57;18.00;99.90
1137;DHT22;557;48.466;7.950;2023-05-10T12:06:46;18.90;99.90
1137;DHT22;557;48.466;7.950;2023-05-10T12:09:33;19.70;99.90
1137;DHT22;557;48.466;7.950;2023-05-10T12:12:20;19.50;99.90
1137;DHT22;557;48.466;7.950;2023-05-10T12:15:12;18.90;99.90
1137;DHT22;557;48.466;7.950;2023-05-10T12:17:59;18.80;99.90
1137;DHT22;557;48.466;7.950;2023-05-10T12:20:47;18.40;99.90
1137;DHT22;557;48.466;7.950;2023-05-10T12:23:34;18.00;99.90
1137;DHT22;557;48.466;7.950;2023-05-10T12:26:22;17.80;99.90
1137;DHT22;557;48.466;7.950;2023-05-10T12:29:14;17.70;99.90
1137;DHT22;557;48.466;7.950;2023-05-10T12:32:03;17.60;99.90
1137;DHT22;557;48.466;7.950;2023-05-10T12:34:52;17.70;99.90
1137;DHT22;557;48.466;7.950;2023-05-10T12:37:40;17.90;99.90
1137;DHT22;557;48.466;7.950;2023-05-10T12:40:27;18.10;99.90
1137;DHT22;557;48.466;7.950;2023-05-10T12:43:15;17.90;99.90
1137;DHT22;557;48.466;7.950;2023-05-10T12:46:06;17.90;99.90
1137;DHT22;557;48.466;7.950;2023-05-10T12:48:55;17.90;99.90
1137;DHT22;557;48.466;7.950;2023-05-10T12:51:43;17.80;99.90
1137;DHT22;557;48.466;7.950;2023-05-10T12:54:30;18.00;1.00
1137;DHT22;557;48.466;7.950;2023-05-10T12:57:17;17.90;99.90
1137;DHT22;557;48.466;7.950;2023-05-10T13:00:06;17.60;99.90
1137;DHT22;557;48.466;7.950;2023-05-10T13:02:53;17.60;99.90
1137;DHT22;557;48.466;7.950;2023-05-10T13:05:42;17.60;99.90
1137;DHT22;557;48.466;7.950;2023-05-10T13:08:29;17.60;99.90
1137;DHT22;557;48.466;7.950;2023-05-10T13:11:19;17.50;99.90
1137;DHT22;557;48.466;7.950;2023-05-10T13:14:07;17.80;99.90
1137;DHT22;557;48.466;7.950;2023-05-10T13:16:54;18.70;99.90
1137;DHT22;557;48.466;7.950;2023-05-10T13:19:42;19.30;99.90
1137;DHT22;557;48.466;7.950;2023-05-10T13:22:30;19.50;99.90
1137;DHT22;557;48.466;7.950;2023-05-10T13:25:18;19.80;99.90
1137;DHT22;557;48.466;7.950;2023-05-10T13:28:05;19.90;99.90
1137;DHT22;557;48.466;7.950;2023-05-10T13:30:53;20.00;99.90
1137;DHT22;557;48.466;7.950;2023-05-10T13:33:40;20.60;99.90
1137;DHT22;557;48.466;7.950;2023-05-10T13:36:27;20.50;99.90
1137;DHT22;557;48.466;7.950;2023-05-10T13:39:16;20.70;99.90
1137;DHT22;557;48.466;7.950;2023-05-10T13:42:23;20.10;99.90
1137;DHT22;557;48.466;7.950;2023-05-10T13:45:12;20.10;99.90
1137;DHT22;557;48.466;7.950;2023-05-10T13:47:59;20.50;99.90
1137;DHT22;557;48.466;7.950;2023-05-10T13:50:47;21.20;99.90
1137;DHT22;557;48.466;7.950;2023-05-10T13:53:34;20.80;99.90
1137;DHT22;557;48.466;7.950;2023-05-10T13:56:23;21.00;99.90
1137;DHT22;557;48.466;7.950;2023-05-10T13:59:10;20.90;99.90
1137;DHT22;557;48.466;7.950;2023-05-10T14:01:57;20.50;99.90
1137;DHT22;557;48.466;7.950;2023-05-10T14:04:45;19.80;99.90
1137;DHT22;557;48.466;7.950;2023-05-10T14:07:32;19.20;99.90
1137;DHT22;557;48.466;7.950;2023-05-10T14:10:20;19.10;99.90
1137;DHT22;557;48.466;7.950;2023-05-10T14:13:08;19.00;99.90
1137;DHT22;557;48.466;7.950;2023-05-10T14:15:56;19.20;99.90
1137;DHT22;557;48.466;7.950;2023-05-10T14:18:44;19.70;99.90
1137;DHT22;557;48.466;7.950;2023-05-10T14:21:32;20.10;99.90
1137;DHT22;557;48.466;7.950;2023-05-10T14:24:19;20.40;99.90
1137;DHT22;557;48.466;7.950;2023-05-10T14:27:06;20.40;99.90
1137;DHT22;557;48.466;7.950;2023-05-10T14:29:55;20.10;99.90
1137;DHT22;557;48.466;7.950;2023-05-10T14:32:42;20.20;99.90
1137;DHT22;557;48.466;7.950;2023-05-10T14:35:29;20.80;99.90
1137;DHT22;557;48.466;7.950;2023-05-10T14:38:17;21.10;99.90
1137;DHT22;557;48.466;7.950;2023-05-10T14:41:05;21.00;99.90
1137;DHT22;557;48.466;7.950;2023-05-10T14:43:52;20.60;99.90
1137;DHT22;557;48.466;7.950;2023-05-10T14:46:41;20.00;99.90
1137;DHT22;557;48.466;7.950;2023-05-10T14:49:28;19.80;99.90
1137;DHT22;557;48.466;7.950;2023-05-10T14:52:16;19.40;99.90
1137;DHT22;557;48.466;7.950;2023-05-10T14:55:04;18.90;99.90
1137;DHT22;557;48.466;7.950;2023-05-10T14:57:51;18.40;99.90
1137;DHT22;557;48.466;7.950;2023-05-10T15:00:40;18.10;99.90
1137;DHT22;557;48.466;7.950;2023-05-10T15:03:30;17.80;99.90
1137;DHT22;557;48.466;7.950;2023-05-10T15:06:17;17.60;99.90
1137;DHT22;557;48.466;7.950;2023-05-10T15:09:09;17.20;1.00
1137;DHT22;557;48.466;7.950;2023-05-10T15:11:57;16.60;1.00
1137;DHT22;557;48.466;7.950;2023-05-10T15:14:44;16.40;99.90
1137;DHT22;557;48.466;7.950;2023-05-10T15:17:31;16.20;99.90
1137;DHT22;557;48.466;7.950;2023-05-10T15:20:20;16.00;99.90
1137;DHT22;557;48.466;7.950;2023-05-10T15:23:07;15.90;1.00
1137;DHT22;557;48.466;7.950;2023-05-10T15:25:55;15.70;99.90
1137;DHT22;557;48.466;7.950;2023-05-10T15:28:43;15.90;1.00
1137;DHT22;557;48.466;7.950;2023-05-10T15:31:30;16.00;99.90
1137;DHT22;557;48.466;7.950;2023-05-10T15:34:18;16.00;99.90
1137;DHT22;557;48.466;7.950;2023-05-10T15:37:07;16.00;99.90
1137;DHT22;557;48.466;7.950;2023-05-10T15:39:54;16.20;99.90
1137;DHT22;557;48.466;7.950;2023-05-10T15:42:48;16.30;99.90
1137;DHT22;557;48.466;7.950;2023-05-10T15:45:35;16.30;99.90
1137;DHT22;557;48.466;7.950;2023-05-10T15:48:23;16.30;99.90
1137;DHT22;557;48.466;7.950;2023-05-10T15:51:10;16.20;1.00
1137;DHT22;557;48.466;7.950;2023-05-10T15:53:59;16.00;99.90
1137;DHT22;557;48.466;7.950;2023-05-10T15:56:47;15.70;99.90
1137;DHT22;557;48.466;7.950;2023-05-10T15:59:35;15.40;99.90
1137;DHT22;557;48.466;7.950;2023-05-10T16:02:22;15.40;1.00
1137;DHT22;557;48.466;7.950;2023-05-10T16:05:10;15.10;1.00
1137;DHT22;557;48.466;7.950;2023-05-10T16:07:57;14.80;1.00
1137;DHT22;557;48.466;7.950;2023-05-10T16:10:46;14.80;19.90
1137;DHT22;557;48.466;7.950;2023-05-10T16:13:33;14.50;4.10
1137;DHT22;557;48.466;7.950;2023-05-10T16:16:21;14.40;99.90
1137;DHT22;557;48.466;7.950;2023-05-10T16:19:08;14.30;44.10
1137;DHT22;557;48.466;7.950;2023-05-10T16:21:55;14.30;99.90
1137;DHT22;557;48.466;7.950;2023-05-10T16:24:43;14.40;99.90
1137;DHT22;557;48.466;7.950;2023-05-10T16:27:31;14.60;99.90
1137;DHT22;557;48.466;7.950;2023-05-10T16:30:19;15.90;99.90
1137;DHT22;557;48.466;7.950;2023-05-10T16:33:06;17.40;1.00
1137;DHT22;557;48.466;7.950;2023-05-10T16:35:54;18.40;99.90
1137;DHT22;557;48.466;7.950;2023-05-10T16:38:41;19.10;1.00
1137;DHT22;557;48.466;7.950;2023-05-10T16:41:31;19.90;99.90
1137;DHT22;557;48.466;7.950;2023-05-10T16:44:20;20.50;37.90
1137;DHT22;557;48.466;7.950;2023-05-10T16:47:07;20.10;1.00
1137;DHT22;557;48.466;7.950;2023-05-10T16:49:54;19.90;1.00
1137;DHT22;557;48.466;7.950;2023-05-10T16:52:41;19.60;99.90
1137;DHT22;557;48.466;7.950;2023-05-10T16:55:29;18.60;1.00
1137;DHT22;557;48.466;7.950;2023-05-10T16:58:16;17.70;99.90
1137;DHT22;557;48.466;7.950;2023-05-10T17:01:05;17.30;1.00
1137;DHT22;557;48.466;7.950;2023-05-10T17:03:52;16.90;1.00
1137;DHT22;557;48.466;7.950;2023-05-10T17:06:39;16.60;99.90
1137;DHT22;557;48.466;7.950;2023-05-10T17:09:27;16.10;1.00
1137;DHT22;557;48.466;7.950;2023-05-10T17:12:14;15.80;1.00
1137;DHT22;557;48.466;7.950;2023-05-10T17:15:02;15.60;99.90
1137;DHT22;557;48.466;7.950;2023-05-10T17:17:50;15.80;99.90
1137;DHT22;557;48.466;7.950;2023-05-10T17:20:38;15.90;99.90
1137;DHT22;557;48.466;7.950;2023-05-10T17:23:25;16.10;1.00
1137;DHT22;557;48.466;7.950;2023-05-10T17:26:12;16.30;99.90
1137;DHT22;557;48.466;7.950;2023-05-10T17:29:00;16.30;99.90
1137;DHT22;557;48.466;7.950;2023-05-10T17:31:47;16.20;1.00
1137;DHT22;557;48.466;7.950;2023-05-10T17:34:36;16.10;99.90
1137;DHT22;557;48.466;7.950;2023-05-10T17:37:24;15.90;1.00
1137;DHT22;557;48.466;7.950;2023-05-10T17:40:11;15.80;99.90
1137;DHT22;557;48.466;7.950;2023-05-10T17:42:59;15.70;99.90
1137;DHT22;557;48.466;7.950;2023-05-10T17:45:47;15.60;99.90
1137;DHT22;557;48.466;7.950;2023-05-10T17:48:35;15.40;1.00
1137;DHT22;557;48.466;7.950;2023-05-10T17:51:23;15.40;1.00
1137;DHT22;557;48.466;7.950;2023-05-10T17:54:11;15.50;1.00
1137;DHT22;557;48.466;7.950;2023-05-10T17:56:58;15.30;1.00
1137;DHT22;557;48.466;7.950;2023-05-10T17:59:45;14.90;1.00
1137;DHT22;557;48.466;7.950;2023-05-10T18:02:33;14.70;1.00
1137;DHT22;557;48.466;7.950;2023-05-10T18:05:21;14.50;1.00
1137;DHT22;557;48.466;7.950;2023-05-10T18:08:09;14.40;1.00
1137;DHT22;557;48.466;7.950;2023-05-10T18:10:57;14.30;1.00
1137;DHT22;557;48.466;7.950;2023-05-10T18:13:44;14.20;1.00
1137;DHT22;557;48.466;7.950;2023-05-10T18:16:31;14.30;1.00
1137;DHT22;557;48.466;7.950;2023-05-10T18:19:19;14.20;1.00
1137;DHT22;557;48.466;7.950;2023-05-10T18:22:07;14.10;1.00
1137;DHT22;557;48.466;7.950;2023-05-10T18:24:55;14.00;19.00
1137;DHT22;557;48.466;7.950;2023-05-10T18:27:43;13.90;41.00
1137;DHT22;557;48.466;7.950;2023-05-10T18:30:30;13.90;51.50
1137;DHT22;557;48.466;7.950;2023-05-10T18:33:17;13.80;57.70
1137;DHT22;557;48.466;7.950;2023-05-10T18:36:04;13.80;46.90
1137;DHT22;557;48.466;7.950;2023-05-10T18:38:52;13.80;76.40
1137;DHT22;557;48.466;7.950;2023-05-10T18:41:41;13.70;45.80